Time;durP1;ratioP1;P1;durP2;ratioP2;P2;SDS_P1;SDS_P2;PMS_P1;PMS_P2;Temp;Humidity;BMP_temperature;BMP_pressure;BME280_temperature;BME280_humidity;BME280_pressure;Samples;Min_cycle;Max_cycle;Signal;HPM_P1;HPM_P2
2022/12/07 00:01:32;;;;;;;6.73;3.03;;;;;;;-9.60;49.78;101178.88;4772396;30;20086;-84
2022/12/07 00:04:04;;;;;;;6.33;3.00;;;;;;;-8.62;49.82;101331.66;4758599;30;20047;-83
2022/12/07 00:06:39;;;;;;;6.13;2.87;;;;;;;-9.62;49.64;101149.25;4766096;30;20055;-83
2022/12/07 00:09:09;;;;;;;6.17;2.70;;;;;;;-9.40;49.17;101193.38;4759960;30;20557;-82
2022/12/07 00:11:35;;;;;;;7.00;2.80;;;;;;;-8.79;49.48;101298.19;4757481;30;20158;-86
2022/12/07 00:14:05;;;;;;;6.63;2.50;;;;;;;-9.61;49.24;101177.09;4788280;29;20181;-84
2022/12/07 00:16:33;;;;;;;8.47;2.50;;;;;;;-9.61;49.29;101173.72;4771919;30;20134;-81
2022/12/07 00:18:59;;;;;;;4.83;2.40;;;;;;;-9.22;49.70;101268.94;4757402;30;20119;-85
2022/12/07 00:21:28;;;;;;;7.77;2.50;;;;;;;-8.87;49.81;101328.50;4772351;30;20059;-84
2022/12/07 00:23:55;;;;;;;8.17;3.10;;;;;;;-9.24;49.50;101270.44;4771909;30;20051;-85
2022/12/07 00:26:27;;;;;;;6.20;2.77;;;;;;;-9.24;49.56;101265.41;4757595;30;20044;-84
2022/12/07 00:28:54;;;;;;;;;;;;;;;-8.90;49.86;101329.09;4758238;30;20479;-85
2022/12/07 00:31:23;;;;;;;6.07;2.13;;;;;;;-8.90;49.35;101324.03;4772162;30;20422;-82
2022/12/07 00:33:50;;;;;;;6.33;2.50;;;;;;;-9.46;49.26;101233.13;4772082;30;20047;-81
2022/12/07 00:36:20;;;;;;;5.70;2.40;;;;;;;-9.38;49.14;101262.44;4772914;30;20189;-84
2022/12/07 00:38:46;;;;;;;6.63;2.87;;;;;;;-9.36;49.69;101274.31;4755309;30;20167;-85
2022/12/07 00:41:21;;;;;;;6.20;2.53;;;;;;;-9.47;49.96;101236.38;4756589;30;20047;-83
2022/12/07 00:43:48;;;;;;;5.83;2.77;;;;;;;-9.95;50.01;101157.91;4769504;30;20051;-83
2022/12/07 00:46:16;;;;;;;6.03;2.80;;;;;;;-10.16;49.67;101112.31;4755447;30;20084;-83
2022/12/07 00:48:42;;;;;;;9.23;2.80;;;;;;;-8.88;50.20;101339.34;4769093;30;20140;-84
2022/12/07 00:51:14;;;;;;;5.90;2.47;;;;;;;-8.95;49.96;101315.19;4772408;30;20051;-86
2022/12/07 00:53:40;;;;;;;;;;;;;;;-8.90;49.90;101334.13;4758562;30;20055;-82
2022/12/07 00:56:13;;;;;;;5.43;2.23;;;;;;;-9.27;49.53;101263.47;4773065;30;20016;-84
2022/12/07 00:58:40;;;;;;;5.50;2.37;;;;;;;-10.22;49.56;101104.16;4772388;30;20047;-85
2022/12/07 01:01:07;;;;;;;5.47;2.30;;;;;;;-10.08;49.81;101151.72;4774052;30;20051;-81
2022/12/07 01:03:33;;;;;;;5.17;2.17;;;;;;;-9.21;49.65;101293.44;4758142;30;20499;-86
2022/12/07 01:06:01;;;;;;;6.23;2.10;;;;;;;-9.56;49.64;101241.44;4788452;30;20055;-83
2022/12/07 01:08:28;;;;;;;5.93;2.63;;;;;;;-10.77;49.45;101003.47;4772932;30;20557;-86
2022/12/07 01:11:03;;;;;;;6.47;2.20;;;;;;;-9.70;49.72;101196.38;4772653;30;20537;-84
2022/12/07 01:13:29;;;;;;;5.67;2.57;;;;;;;-9.68;49.51;101213.44;4772799;30;20143;-82
2022/12/07 01:15:59;;;;;;;5.47;2.53;;;;;;;-9.00;49.84;101316.38;4772153;30;20090;-82
2022/12/07 01:18:26;;;;;;;7.37;2.63;;;;;;;-8.94;49.65;101325.41;4773407;30;20130;-84
2022/12/07 01:21:01;;;;;;;6.10;2.50;;;;;;;-9.22;49.58;101271.47;4763171;30;20063;-82
2022/12/07 01:23:27;;;;;;;6.00;2.47;;;;;;;-8.92;49.57;101317.94;4776404;30;20052;-84
2022/12/07 01:25:59;;;;;;;4.50;2.23;;;;;;;-9.20;49.36;101274.13;4771937;30;20051;-81
2022/12/07 01:28:25;;;;;;;10.40;3.17;;;;;;;-9.18;49.21;101291.19;4758855;30;20533;-84
2022/12/07 01:31:00;;;;;;;4.97;2.70;;;;;;;-9.25;49.22;101278.75;4775030;30;20047;-83
2022/12/07 01:33:32;;;;;;;5.10;2.37;;;;;;;-8.90;49.79;101324.03;4773111;30;20048;-79
2022/12/07 01:36:20;;;;;;;5.53;2.70;;;;;;;-8.85;49.61;101327.88;4758371;30;20090;-80
2022/12/07 01:38:51;;;;;;;5.93;2.47;;;;;;;-8.88;49.40;101317.50;4777169;30;20063;-84
2022/12/07 01:41:20;;;;;;;4.37;2.40;;;;;;;-9.10;49.31;101272.59;4759958;30;20142;-84
2022/12/07 01:44:10;;;;;;;6.70;2.77;;;;;;;-8.85;49.37;101307.69;4790684;30;20134;-83
2022/12/07 01:46:37;;;;;;;4.23;2.70;;;;;;;-9.43;49.60;101208.19;4776298;30;20054;-83
2022/12/07 01:49:06;;;;;;;7.33;2.60;;;;;;;-9.00;49.47;101270.94;4762414;30;20417;-84
2022/12/07 01:51:33;;;;;;;6.77;2.80;;;;;;;-9.27;49.87;101235.75;4761503;30;20050;-82
2022/12/07 01:54:00;;;;;;;7.00;2.70;;;;;;;-10.39;49.50;101032.13;4794880;30;20079;-83
2022/12/07 01:56:29;;;;;;;6.63;2.60;;;;;;;-8.99;49.75;101272.72;4775256;30;20047;-82
2022/12/07 01:58:57;;;;;;;8.37;3.20;;;;;;;-9.04;49.71;101251.22;4774812;30;20043;-84
2022/12/07 02:01:23;;;;;;;8.73;3.37;;;;;;;-8.67;49.88;101302.56;4775798;30;20407;-85
2022/12/07 02:03:50;;;;;;;8.53;3.40;;;;;;;-9.01;49.78;101243.94;4791906;30;20092;-84
2022/12/07 02:06:21;;;;;;;7.33;2.97;;;;;;;-8.71;49.24;101305.56;4775470;30;20055;-84
2022/12/07 02:08:47;;;;;;;10.30;3.40;;;;;;;-9.27;49.02;101204.56;4769129;30;20039;-82
2022/12/07 02:11:13;;;;;;;6.47;3.27;;;;;;;-9.32;48.61;101231.91;4808568;30;20034;-82
2022/12/07 02:13:42;;;;;;;5.37;2.53;;;;;;;-8.97;49.71;101293.94;4779783;30;20146;-83
2022/12/07 02:16:27;;;;;;;6.27;2.87;;;;;;;-8.77;49.82;101295.78;4795209;30;20027;-82
2022/12/07 02:19:32;;;;;;;7.40;3.10;;;;;;;-8.74;49.50;101296.06;4784260;30;20039;-82
2022/12/07 02:22:25;;;;;;;6.17;3.13;;;;;;;-8.99;49.72;101262.63;4762418;30;20039;-81
2022/12/07 02:25:21;;;;;;;12.90;4.10;;;;;;;-9.19;49.82;101217.88;4759447;30;20043;-84
2022/12/07 02:27:56;;;;;;;9.67;3.97;;;;;;;-9.12;49.40;101251.38;4790842;30;20482;-83
2022/12/07 02:30:27;;;;;;;13.10;4.83;;;;;;;-9.38;49.01;101242.28;4759704;30;20042;-81
2022/12/07 02:33:05;;;;;;;14.60;4.77;;;;;;;-9.72;48.79;101236.56;4777180;30;20100;-83
2022/12/07 02:35:44;;;;;;;11.63;4.90;;;;;;;-9.52;49.36;101299.72;4780317;30;20138;-81
2022/12/07 02:38:35;;;;;;;7.93;3.93;;;;;;;-9.56;50.36;101293.47;4792811;30;20522;-83
2022/12/07 02:41:10;;;;;;;10.43;4.30;;;;;;;-9.64;49.49;101295.25;4790399;30;20104;-83
2022/12/07 02:43:47;;;;;;;10.20;4.03;;;;;;;-9.74;49.92;101296.00;4790065;30;20161;-82
2022/12/07 02:46:20;;;;;;;12.53;4.37;;;;;;;-9.75;50.25;101296.75;4789935;30;20466;-83
2022/12/07 02:48:48;;;;;;;8.33;3.83;;;;;;;-10.38;50.24;101190.81;4789620;29;20058;-84
2022/12/07 02:51:14;;;;;;;10.23;4.27;;;;;;;-10.76;50.74;101107.50;4773617;30;20043;-82
2022/12/07 02:53:42;;;;;;;10.43;4.27;;;;;;;-9.84;51.14;101231.25;4776738;30;20051;-82
2022/12/07 02:56:30;;;;;;;7.93;3.60;;;;;;;-9.47;50.47;101293.47;4762057;30;20053;-82
2022/12/07 02:59:26;;;;;;;9.17;4.37;;;;;;;-9.92;50.72;101213.63;4769754;30;20433;-83
2022/12/07 03:02:01;;;;;;;10.00;3.67;;;;;;;-9.57;50.49;101289.19;4773315;30;20035;-83
2022/12/07 03:04:42;;;;;;;7.53;3.10;;;;;;;-9.80;49.64;101274.38;4775130;30;20081;-84
2022/12/07 03:07:46;;;;;;;7.23;3.60;;;;;;;-9.80;50.72;101290.38;4775661;30;20130;-81
2022/12/07 03:10:28;;;;;;;9.53;3.70;;;;;;;-9.82;50.53;101285.94;4779535;30;20070;-81
2022/12/07 03:13:06;;;;;;;;;;;;;;;-9.80;50.71;101286.97;4772943;30;20418;-80
2022/12/07 03:15:41;;;;;;;9.17;3.70;;;;;;;-9.75;51.16;101291.72;4781312;30;19921;-81
2022/12/07 03:18:09;;;;;;;7.57;3.83;;;;;;;-9.75;50.55;101289.19;4780033;30;20413;-83
2022/12/07 03:20:39;;;;;;;7.93;3.53;;;;;;;-10.90;51.10;101079.38;4773489;30;20653;-85
2022/12/07 03:23:09;;;;;;;7.97;3.83;;;;;;;-9.83;50.97;101242.22;4773527;30;20428;-85
2022/12/07 03:25:44;;;;;;;9.10;3.73;;;;;;;-10.70;51.25;101115.63;4772748;30;20043;-82
2022/12/07 03:28:13;;;;;;;10.90;3.77;;;;;;;-9.47;51.20;101280.84;4773186;30;20043;-83
2022/12/07 03:30:46;;;;;;;10.30;4.47;;;;;;;-9.49;51.15;101282.38;4772807;30;20050;-85
2022/12/07 03:33:20;;;;;;;7.40;3.27;;;;;;;-9.54;50.95;101284.44;4789370;30;20079;-83
2022/12/07 03:36:09;;;;;;;11.60;3.70;;;;;;;-9.51;50.97;101301.50;4789598;30;20547;-81
2022/12/07 03:39:02;;;;;;;7.40;3.07;;;;;;;-10.00;50.84;101213.78;4773600;30;20142;-84
2022/12/07 03:41:33;;;;;;;6.07;3.10;;;;;;;-9.46;50.55;101283.53;4774145;30;20134;-82
2022/12/07 03:44:00;;;;;;;6.07;3.13;;;;;;;-9.53;50.53;101261.00;4772378;30;20100;-80
2022/12/07 03:46:35;;;;;;;9.20;3.63;;;;;;;-9.58;50.09;101274.78;4757993;30;20534;-83
2022/12/07 03:49:23;;;;;;;7.27;3.53;;;;;;;-9.72;50.22;101279.41;4776206;30;20051;-82
2022/12/07 03:52:04;;;;;;;9.80;3.40;;;;;;;-10.15;50.72;101222.38;4795629;30;20125;-82
2022/12/07 03:54:52;;;;;;;7.70;3.83;;;;;;;-10.74;51.09;101118.59;4775994;30;20047;-85
2022/12/07 03:57:20;;;;;;;10.23;4.37;;;;;;;-10.69;51.50;101142.56;4774103;30;20509;-84
2022/12/07 03:59:47;;;;;;;9.00;4.00;;;;;;;-9.85;51.17;101292.47;4771986;30;20043;-83
2022/12/07 04:02:15;;;;;;;8.33;3.67;;;;;;;-10.39;51.31;101189.09;4772188;30;20031;-84
2022/12/07 04:04:43;;;;;;;7.47;3.23;;;;;;;-10.72;50.71;101159.91;4757723;30;20043;-83
2022/12/07 04:07:10;;;;;;;10.17;3.20;;;;;;;-10.15;51.88;101245.91;4772237;30;20431;-84
2022/12/07 04:09:36;;;;;;;8.93;3.93;;;;;;;-10.64;51.00;101165.69;4757055;30;20503;-83
2022/12/07 04:12:03;;;;;;;7.37;3.13;;;;;;;-10.40;51.47;101211.59;4773199;30;20047;-85
2022/12/07 04:14:29;;;;;;;9.63;4.00;;;;;;;-10.16;52.05;101246.69;4758031;30;20040;-83
2022/12/07 04:16:58;;;;;;;9.50;3.20;;;;;;;-10.21;51.99;101227.72;4771828;30;20514;-82
2022/12/07 04:19:31;;;;;;;10.47;3.53;;;;;;;-10.75;51.95;101134.44;4772609;30;20058;-83
2022/12/07 04:22:10;;;;;;;7.90;2.70;;;;;;;-9.93;52.18;101297.50;4760899;30;20035;-86
2022/12/07 04:25:33;;;;;;;8.90;3.27;;;;;;;-11.84;51.93;100953.00;4769865;30;20039;-85
2022/12/07 04:28:12;;;;;;;8.73;4.00;;;;;;;-11.05;52.17;101092.97;4786081;30;20506;-83
2022/12/07 04:30:51;;;;;;;5.10;2.87;;;;;;;-11.50;52.03;100978.03;4773236;30;20123;-86
2022/12/07 04:33:31;;;;;;;8.07;3.13;;;;;;;-10.02;50.98;101215.25;4775241;30;20086;-83
2022/12/07 04:35:57;;;;;;;12.10;3.53;;;;;;;-11.35;51.65;100991.16;4775093;30;20071;-83
2022/12/07 04:38:33;;;;;;;11.03;4.07;;;;;;;-10.69;50.90;101167.72;4787334;29;20417;-88
2022/12/07 04:41:05;;;;;;;9.07;4.70;;;;;;;-10.31;50.92;101225.03;4757277;30;20077;-83
2022/12/07 04:44:09;;;;;;;12.37;4.17;;;;;;;-10.14;51.61;101269.50;4772553;30;20054;-83
2022/12/07 04:50:52;;;;;;;16.37;6.10;;;;;;;-10.02;52.35;101282.38;4773959;30;20506;-85
2022/12/07 04:53:25;;;;;;;14.47;5.03;;;;;;;-11.17;51.70;101089.25;4758289;30;20055;-83
2022/12/07 04:56:11;;;;;;;12.20;5.20;;;;;;;-10.45;51.43;101218.69;4788565;30;20055;-83
2022/12/07 04:58:43;;;;;;;11.77;4.37;;;;;;;-11.23;52.34;101094.53;4789647;29;20104;-86
2022/12/07 05:01:09;;;;;;;9.27;4.43;;;;;;;-11.47;52.46;101050.28;4797535;30;20471;-83
2022/12/07 05:03:39;;;;;;;8.23;4.03;;;;;;;-10.11;52.74;101263.84;4784946;30;20063;-86
2022/12/07 05:06:06;;;;;;;8.93;4.13;;;;;;;-9.90;53.00;101280.16;4790614;30;20107;-84
2022/12/07 05:08:35;;;;;;;12.10;4.03;;;;;;;-11.06;51.89;101088.66;4774700;30;20567;-86
2022/12/07 05:11:03;;;;;;;11.87;3.83;;;;;;;-11.93;52.72;100924.44;4759843;30;20510;-84
2022/12/07 05:13:29;;;;;;;11.90;3.80;;;;;;;-10.29;52.26;101237.06;4758967;30;20518;-85
2022/12/07 05:15:55;;;;;;;15.13;4.10;;;;;;;-10.70;52.08;101165.94;4775072;30;20043;-86
2022/12/07 05:18:22;;;;;;;11.23;4.23;;;;;;;-10.29;52.56;101231.09;4760353;30;20100;-83
2022/12/07 05:20:48;;;;;;;10.13;4.07;;;;;;;-9.85;53.13;101267.25;4772835;30;20077;-86
2022/12/07 05:23:14;;;;;;;7.13;3.43;;;;;;;-10.62;52.36;101122.31;4758126;30;20096;-86
2022/12/07 05:25:41;;;;;;;12.93;5.63;;;;;;;-10.50;52.33;101145.25;4772993;30;20444;-86
2022/12/07 05:28:07;;;;;;;9.23;3.63;;;;;;;-9.86;52.15;101262.09;4775400;30;20051;-84
2022/12/07 05:30:33;;;;;;;7.27;3.17;;;;;;;-10.15;52.23;101245.91;4760515;30;20104;-84
2022/12/07 05:32:59;;;;;;;8.03;3.37;;;;;;;-9.95;52.53;101278.81;4788694;30;20168;-84
2022/12/07 05:35:26;;;;;;;10.33;3.50;;;;;;;-10.86;52.63;101117.41;4773874;30;20051;-85
2022/12/07 05:37:52;;;;;;;8.27;3.67;;;;;;;-10.57;53.02;101157.97;4776407;30;20035;-84
2022/12/07 05:40:18;;;;;;;12.03;4.33;;;;;;;-10.31;52.95;101175.59;4761874;30;20192;-86
2022/12/07 05:42:45;;;;;;;8.73;3.73;;;;;;;-11.15;51.81;101043.41;4777008;30;20535;-84
2022/12/07 05:45:13;;;;;;;9.57;4.00;;;;;;;-11.22;52.55;101067.06;4792743;30;20095;-85
2022/12/07 05:47:39;;;;;;;10.30;3.70;;;;;;;-11.08;52.77;101059.97;4780360;30;20046;-85
2022/12/07 05:50:06;;;;;;;8.10;3.17;;;;;;;-10.75;52.77;101056.44;4766284;30;20058;-87
2022/12/07 05:52:36;;;;;;;12.97;4.10;;;;;;;-10.58;53.28;101001.81;4779925;30;20043;-85
2022/12/07 05:55:03;;;;;;;9.10;4.07;;;;;;;-8.51;52.64;101250.22;4795745;29;20055;-84
2022/12/07 05:57:32;;;;;;;10.73;3.73;;;;;;;-9.53;52.28;100940.88;4797436;29;20031;-86
2022/12/07 06:00:06;;;;;;;12.10;4.05;;;;;;;-8.55;51.06;101066.38;4812034;29;20051;-84
2022/12/07 06:02:38;;;;;;;11.00;5.13;;;;;;;-7.35;50.90;101177.66;4782771;30;20047;-86
2022/12/07 06:05:05;;;;;;;15.57;5.45;;;;;;;-6.78;52.06;101177.34;4764458;30;20050;-85
2022/12/07 06:07:38;;;;;;;9.55;3.60;;;;;;;-7.63;49.44;100970.47;4765280;30;20039;-84
2022/12/07 06:10:08;;;;;;;9.60;4.40;;;;;;;-6.23;50.48;101109.13;4785304;29;20043;-83
2022/12/07 06:12:49;;;;;;;9.88;4.63;;;;;;;-5.55;49.89;101080.53;4785565;30;20051;-82
2022/12/07 06:15:16;;;;;;;8.13;3.80;;;;;;;-4.63;49.69;101179.63;4782073;30;20043;-85
2022/12/07 06:17:42;;;;;;;7.68;4.05;;;;;;;-4.52;49.34;101165.19;4788862;30;20062;-84
2022/12/07 06:20:08;;;;;;;11.40;4.15;;;;;;;-4.23;47.38;101162.22;4794620;30;20078;-83
2022/12/07 06:22:35;;;;;;;9.30;4.20;;;;;;;-3.52;49.31;101197.75;4796004;29;20039;-84
2022/12/07 06:25:03;;;;;;;11.65;4.43;;;;;;;-2.45;48.41;101217.75;4797403;29;20034;-86
2022/12/07 06:27:31;;;;;;;8.10;3.97;;;;;;;-2.37;47.65;101131.56;4782244;29;20031;-84
2022/12/07 06:29:57;;;;;;;8.57;4.20;;;;;;;-1.25;44.79;101228.75;4797100;29;20034;-87
2022/12/07 06:32:24;;;;;;;7.90;4.25;;;;;;;-1.76;44.44;101104.72;4797671;29;20098;-84
2022/12/07 06:34:50;;;;;;;9.10;4.75;;;;;;;-2.16;44.96;101068.28;4797228;29;20035;-83
2022/12/07 06:37:17;;;;;;;8.93;4.47;;;;;;;-1.16;44.36;101123.69;4781811;30;20073;-84
2022/12/07 06:39:43;;;;;;;14.25;5.45;;;;;;;-0.61;43.39;101138.84;4781356;30;20040;-84
2022/12/07 06:42:09;;;;;;;9.10;4.43;;;;;;;-1.22;41.27;100967.50;4796656;29;20027;-84
2022/12/07 06:44:38;;;;;;;10.52;5.03;;;;;;;0.58;42.34;101218.78;4796668;29;20066;-84
2022/12/07 06:47:05;;;;;;;8.73;4.45;;;;;;;0.38;42.48;101041.00;4797113;29;20028;-85
2022/12/07 06:49:32;;;;;;;9.75;4.65;;;;;;;1.60;42.08;101201.81;4796955;29;20119;-84
2022/12/07 06:52:01;;;;;;;8.98;4.80;;;;;;;1.03;39.96;101053.66;4782053;29;20042;-85
2022/12/07 06:54:30;;;;;;;13.60;5.55;;;;;;;1.47;40.14;101111.38;4812568;29;20027;-85
2022/12/07 06:56:56;;;;;;;9.20;5.10;;;;;;;2.10;39.81;101212.81;4781179;29;20035;-85
2022/12/07 06:59:28;;;;;;;9.18;4.78;;;;;;;1.26;38.62;100992.34;4796073;29;20146;-87
2022/12/07 07:01:54;;;;;;;10.02;4.65;;;;;;;1.92;38.29;101010.84;4795432;29;20047;-86
2022/12/07 07:04:21;;;;;;;11.38;5.57;;;;;;;1.93;37.58;100962.94;4778869;30;20023;-86
2022/12/07 07:06:49;;;;;;;9.48;4.70;;;;;;;2.40;36.82;101030.09;4792318;30;20131;-84
2022/12/07 07:09:27;;;;;;;10.63;5.18;;;;;;;1.73;35.11;100962.91;4770014;30;20043;-86
2022/12/07 07:11:53;;;;;;;8.48;4.72;;;;;;;2.99;37.26;101125.16;4769043;30;20067;-82
2022/12/07 07:14:23;;;;;;;10.95;5.15;;;;;;;3.63;35.76;101087.47;4785047;30;20042;-87
2022/12/07 07:17:07;;;;;;;14.70;4.65;;;;;;;3.13;34.05;100979.13;4773804;30;20218;-88
2022/12/07 07:19:40;;;;;;;8.10;4.25;;;;;;;4.41;33.96;101155.75;4774240;30;20062;-86
2022/12/07 07:22:39;;;;;;;9.38;4.75;;;;;;;4.55;33.32;101049.69;4789180;30;20066;-85
2022/12/07 07:25:22;;;;;;;8.82;4.70;;;;;;;3.97;32.56;101014.13;4770085;30;20070;-86
2022/12/07 07:27:52;;;;;;;8.30;4.80;;;;;;;4.29;31.91;101120.09;4770325;30;20043;-85
2022/12/07 07:30:18;;;;;;;7.97;4.40;;;;;;;4.07;32.32;101066.88;4780769;30;20047;-86
2022/12/07 07:32:47;;;;;;;7.72;4.65;;;;;;;4.32;31.20;101006.81;4786699;30;20039;-87
2022/12/07 07:35:14;;;;;;;8.27;4.53;;;;;;;4.86;32.70;101024.97;4793867;30;20023;-86
2022/12/07 07:38:26;;;;;;;8.38;4.55;;;;;;;5.97;29.36;101124.09;4770333;30;20053;-87
2022/12/07 07:42:00;;;;;;;;;;;;;;;;;;;;;
2022/12/07 07:44:57;;;;;;;6.75;4.38;;;;;;;6.09;30.91;101029.69;4778010;30;20129;-83
2022/12/07 07:47:26;;;;;;;6.55;4.53;;;;;;;7.05;29.40;101149.66;4763570;30;20379;-85
2022/12/07 07:49:56;;;;;;;8.32;4.32;;;;;;;6.73;28.89;101177.22;4765605;30;20047;-85
2022/12/07 07:52:23;;;;;;;7.25;4.40;;;;;;;5.70;29.41;101010.47;4779408;30;20431;-84
2022/12/07 07:54:57;;;;;;;8.10;5.13;;;;;;;5.49;27.68;100988.31;4763689;30;20130;-84
2022/12/07 07:57:25;;;;;;;8.95;4.47;;;;;;;5.81;28.28;101026.28;4782531;30;20481;-83
2022/12/07 07:59:51;;;;;;;9.73;4.45;;;;;;;7.36;27.90;101196.22;4771505;30;20525;-84
2022/12/07 08:02:19;;;;;;;7.30;4.05;;;;;;;7.22;27.11;101082.78;4790657;30;20043;-81
2022/12/07 08:04:46;;;;;;;8.85;4.43;;;;;;;7.49;28.39;101140.44;4774522;30;20151;-83
2022/12/07 08:10:32;;;;;;;8.15;4.70;;;;;;;8.26;27.65;101143.94;5827114;24;20021;-83
2022/12/07 08:13:14;;;;;;;7.45;4.05;;;;;;;9.43;27.12;101135.00;4771075;30;20449;-83
2022/12/07 08:15:55;;;;;;;5.97;4.10;;;;;;;9.01;24.70;101146.38;4790304;29;20188;-85
2022/12/07 08:18:25;;;;;;;6.88;4.78;;;;;;;6.93;26.47;100924.16;4807208;29;20027;-86
2022/12/07 08:20:51;;;;;;;6.65;4.55;;;;;;;8.40;26.92;101017.13;4794288;29;20065;-85
2022/12/07 08:23:17;;;;;;;9.65;4.80;;;;;;;9.78;25.87;100980.47;4795595;29;20059;-86
2022/12/07 08:25:47;;;;;;;7.50;4.50;;;;;;;10.35;24.76;101017.56;5223248;24;20051;-85
2022/12/07 08:28:13;;;;;;;7.35;4.57;;;;;;;11.09;24.36;101132.06;4776937;29;20044;-86
2022/12/07 08:30:40;;;;;;;7.95;5.60;;;;;;;9.22;24.60;100878.38;4775974;29;20092;-86
2022/12/07 08:33:12;;;;;;;7.32;4.50;;;;;;;11.47;23.46;101075.97;4786032;30;20066;-87
2022/12/07 08:35:39;;;;;;;8.00;4.50;;;;;;;11.12;23.35;100943.66;4803535;29;20137;-85
2022/12/07 08:38:11;;;;;;;8.07;4.82;;;;;;;11.17;21.46;101126.94;4789585;29;20437;-85
2022/12/07 08:40:41;;;;;;;7.10;4.72;;;;;;;9.74;21.89;100940.53;4788723;29;20042;-90
2022/12/07 08:43:12;;;;;;;;;;;;;;;11.49;23.06;101110.72;4813368;29;20043;-86
2022/12/07 08:45:40;;;;;;;6.40;4.40;;;;;;;12.22;22.42;100978.16;4768582;29;19921;-87
2022/12/07 08:48:11;;;;;;;6.07;4.18;;;;;;;11.67;21.17;100957.91;4788123;29;20042;-83
2022/12/07 08:50:38;;;;;;;6.30;4.07;;;;;;;11.70;21.59;100913.56;4807818;29;20099;-86
2022/12/07 08:53:07;;;;;;;5.80;4.28;;;;;;;11.68;20.62;100903.16;4801796;29;20068;-85
2022/12/07 08:55:35;;;;;;;6.10;4.32;;;;;;;11.81;20.93;100908.41;4789144;29;20437;-86
2022/12/07 08:58:04;;;;;;;5.88;4.25;;;;;;;12.48;21.38;100974.72;4779210;30;20043;-88
2022/12/07 09:00:37;;;;;;;6.10;4.28;;;;;;;13.67;20.86;101019.19;4781872;30;20055;-85
2022/12/07 09:03:09;;;;;;;7.68;4.15;;;;;;;12.77;20.25;100914.72;4768736;30;20059;-86
2022/12/07 09:05:36;;;;;;;7.00;4.30;;;;;;;13.46;20.29;101024.47;4750238;30;20554;-85
2022/12/07 09:08:03;;;;;;;5.38;4.40;;;;;;;11.51;19.81;100951.75;4749215;30;20047;-86
2022/12/07 09:10:32;;;;;;;6.15;4.50;;;;;;;12.12;20.23;101070.31;4745792;30;20141;-85
2022/12/07 09:13:03;;;;;;;6.18;4.68;;;;;;;11.67;20.37;101110.00;4737046;29;20039;-87
2022/12/07 09:15:34;;;;;;;6.60;4.40;;;;;;;10.66;19.91;100899.94;4781700;30;20078;-86
2022/12/07 09:18:43;;;;;;;6.95;4.93;;;;;;;11.41;19.82;101083.72;4768543;29;20058;-88
2022/12/07 09:21:11;;;;;;;7.00;4.57;;;;;;;10.66;21.18;101012.72;4784651;30;20059;-85
2022/12/07 09:23:49;;;;;;;7.13;4.57;;;;;;;9.29;20.82;100877.59;4782607;29;20050;-86
2022/12/07 09:26:16;;;;;;;8.88;5.32;;;;;;;9.13;20.73;100935.38;4796162;29;20089;-84
2022/12/07 09:34:55;;;;;;;7.05;4.55;;;;;;;9.11;20.75;100828.03;4798196;29;20059;-86
2022/12/07 09:38:30;;;;;;;7.57;5.00;;;;;;;11.27;20.27;101063.63;4765904;30;20047;-86
2022/12/07 09:41:08;;;;;;;8.63;4.97;;;;;;;10.05;20.97;100865.50;4766152;30;20437;-86
2022/12/07 09:43:56;;;;;;;7.05;4.82;;;;;;;10.87;20.86;100979.06;4766930;30;20060;-88
2022/12/07 09:46:41;;;;;;;5.68;4.13;;;;;;;10.54;20.07;100934.53;4782706;30;20046;-86
2022/12/07 09:49:18;;;;;;;9.23;4.65;;;;;;;10.20;19.89;101075.50;4782359;30;20085;-85
2022/12/07 09:51:44;;;;;;;6.28;4.68;;;;;;;9.04;21.66;101009.69;4797928;29;20055;-84
2022/12/07 09:54:16;;;;;;;7.22;4.82;;;;;;;7.97;21.05;100900.50;4765884;30;20085;-85
2022/12/07 09:56:46;;;;;;;;;;;;;;;8.64;20.95;101066.06;4782264;30;20107;-86
2022/12/07 09:59:18;;;;;;;6.35;4.30;;;;;;;6.86;20.92;100852.41;4782507;30;19927;-85
2022/12/07 10:01:49;;;;;;;8.77;4.70;;;;;;;4.96;22.06;100821.53;4769182;30;20046;-84
2022/12/07 10:05:18;;;;;;;7.95;4.57;;;;;;;4.63;22.31;101077.53;4787865;30;20047;-85
2022/12/07 10:07:52;;;;;;;7.68;4.10;;;;;;;1.52;23.67;100819.16;4765707;30;20082;-86
2022/12/07 10:10:30;;;;;;;8.73;4.22;;;;;;;1.93;24.46;101050.22;4785884;30;20054;-85
2022/12/07 10:13:14;;;;;;;7.55;4.25;;;;;;;0.82;25.31;101023.56;4752059;30;20043;-86
2022/12/07 10:15:56;;;;;;;6.95;3.75;;;;;;;0.29;25.89;101061.88;4737276;30;20043;-85
2022/12/07 10:18:49;;;;;;;6.95;4.05;;;;;;;0.03;27.33;101100.56;4750073;30;20072;-85
2022/12/07 10:21:32;;;;;;;7.88;3.92;;;;;;;-1.52;27.33;100958.16;4749361;30;20081;-85
2022/12/07 10:24:26;;;;;;;8.85;4.80;;;;;;;-2.00;28.00;100876.25;4761143;30;20055;-85
2022/12/07 10:26:59;;;;;;;8.50;3.75;;;;;;;-1.84;28.88;100982.63;4762790;30;20466;-85
2022/12/07 10:29:53;;;;;;;9.13;3.58;;;;;;;-2.31;28.33;101029.94;4784446;30;20111;-86
2022/12/07 10:32:23;;;;;;;7.60;3.85;;;;;;;-1.99;29.45;101099.06;4797071;29;20043;-85
2022/12/07 10:35:11;;;;;;;6.38;3.60;;;;;;;-2.18;30.03;101092.81;4783911;30;20059;-85
2022/12/07 10:37:45;;;;;;;9.45;4.63;;;;;;;-3.70;30.61;100958.19;4764841;30;20434;-83
2022/12/07 10:40:29;;;;;;;8.85;3.90;;;;;;;-2.88;30.76;101101.09;4813566;29;20492;-85
2022/12/07 10:43:14;;;;;;;8.68;4.20;;;;;;;-2.97;31.44;101094.50;4777476;30;20051;-85
2022/12/07 10:46:14;;;;;;;7.78;4.05;;;;;;;-3.21;31.77;101095.50;4792304;29;20043;-86
2022/12/07 10:49:00;;;;;;;7.78;3.95;;;;;;;-3.45;31.90;101091.28;4789912;29;20051;-88
2022/12/07 10:52:06;;;;;;;9.23;4.05;;;;;;;-4.65;32.77;100924.56;4795919;29;20111;-85
2022/12/07 10:54:44;;;;;;;8.75;4.05;;;;;;;-3.64;33.58;101085.81;4795642;29;20133;-84
2022/12/07 10:57:23;;;;;;;9.05;3.85;;;;;;;-4.09;32.74;101023.38;4821947;29;20075;-90
2022/12/07 11:00:13;;;;;;;10.95;4.43;;;;;;;-3.97;33.89;101077.63;4787148;29;20043;-88
2022/12/07 11:03:39;;;;;;;7.70;4.30;;;;;;;-4.22;34.23;101089.38;4769049;30;20522;-85
2022/12/07 11:06:27;;;;;;;8.98;4.28;;;;;;;-4.38;34.46;101091.69;4766078;30;20078;-87
2022/12/07 11:54:27;;;;;;;;;;;;;;;;;;;;;
2022/12/07 12:19:27;;;;;;;9.23;3.85;;;;;;;-6.69;41.51;101046.41;4658756;30;20440;-85
2022/12/07 12:26:32;;;;;;;9.85;3.95;;;;;;;-8.81;41.84;100695.63;4755394;30;20055;-86
2022/12/07 12:29:48;;;;;;;13.80;4.47;;;;;;;-7.26;42.16;100994.63;4742046;30;20591;-84
2022/12/07 12:33:10;;;;;;;8.40;3.75;;;;;;;-7.83;42.26;100883.75;4773614;30;20064;-85
2022/12/07 12:36:16;;;;;;;10.55;4.75;;;;;;;-9.09;42.64;100675.69;4753115;29;20064;-86
2022/12/07 12:39:08;;;;;;;;;;;;;;;-7.11;42.88;101030.41;4769406;29;20577;-82
2022/12/07 12:42:05;;;;;;;8.10;4.35;;;;;;;-7.20;43.06;101033.84;4793882;29;20083;-86
2022/12/07 12:45:40;;;;;;;9.98;4.68;;;;;;;-7.26;43.37;101055.34;4785465;29;20539;-85
2022/12/07 12:48:37;;;;;;;7.32;3.35;;;;;;;-9.16;42.97;100694.47;4768559;29;20054;-87
2022/12/07 12:51:51;;;;;;;9.20;4.63;;;;;;;-7.41;43.84;101023.72;4783934;29;20050;-84
2022/12/07 12:54:31;;;;;;;11.82;4.10;;;;;;;-9.53;43.94;100686.28;4794878;30;20532;-83
2022/12/07 12:57:30;;;;;;;11.82;5.03;;;;;;;-7.84;44.02;100954.44;4766183;30;20051;-84
2022/12/07 13:00:20;;;;;;;8.43;4.00;;;;;;;-7.57;43.98;101017.38;4758310;30;20213;-83
2022/12/07 13:02:58;;;;;;;9.88;4.05;;;;;;;-9.27;44.53;100763.28;4745504;30;20040;-84
2022/12/07 13:05:33;;;;;;;15.52;4.88;;;;;;;-9.59;45.10;100690.78;4744822;30;20056;-85
2022/12/07 13:08:21;;;;;;;11.83;4.60;;;;;;;-8.57;44.97;100906.31;4772347;30;20088;-85
2022/12/07 13:10:54;;;;;;;8.50;3.63;;;;;;;-9.81;45.48;100728.38;4793264;30;20075;-84
2022/12/07 13:13:23;;;;;;;8.60;3.63;;;;;;;-7.98;45.95;101018.97;4788378;29;20128;-83
2022/12/07 13:15:54;;;;;;;9.33;4.53;;;;;;;-7.97;46.07;101024.13;4794123;29;20032;-83
2022/12/07 13:18:45;;;;;;;11.68;4.38;;;;;;;-7.96;46.58;101020.84;4778856;29;20071;-83
2022/12/07 13:22:05;;;;;;;14.73;5.63;;;;;;;-9.69;46.63;100740.41;4751197;30;20102;-84
2022/12/07 13:24:41;;;;;;;11.30;4.70;;;;;;;-9.66;46.32;100769.16;4789230;30;20047;-84
2022/12/07 13:27:14;;;;;;;11.13;4.17;;;;;;;-8.89;46.51;100894.31;4790407;30;20081;-85
2022/12/07 13:29:48;;;;;;;10.00;3.33;;;;;;;-10.18;46.50;100691.69;4769714;30;20051;-85
2022/12/07 13:32:30;;;;;;;11.30;4.50;;;;;;;-8.25;47.17;101026.81;4768551;30;20044;-82